sensor_id;sensor_type;location;lat;lon;timestamp;P1;durP1;ratioP1;P2;durP2;ratioP2
17065;SDS011;23120;52.336;21.182;2022-10-16T00:01:04;16.37;;;14.67;;
17065;SDS011;23120;52.336;21.182;2022-10-16T00:03:32;16.90;;;15.20;;
17065;SDS011;23120;52.336;21.182;2022-10-16T00:05:59;16.83;;;15.13;;
17065;SDS011;23120;52.336;21.182;2022-10-16T00:08:26;20.60;;;15.10;;
17065;SDS011;23120;52.336;21.182;2022-10-16T00:10:59;16.00;;;13.93;;
17065;SDS011;23120;52.336;21.182;2022-10-16T00:13:27;16.37;;;14.67;;
17065;SDS011;23120;52.336;21.182;2022-10-16T00:15:54;16.70;;;15.00;;
17065;SDS011;23120;52.336;21.182;2022-10-16T00:18:22;17.50;;;14.73;;
17065;SDS011;23120;52.336;21.182;2022-10-16T00:20:49;18.13;;;15.27;;
17065;SDS011;23120;52.336;21.182;2022-10-16T00:23:16;18.50;;;15.80;;
17065;SDS011;23120;52.336;21.182;2022-10-16T00:25:43;16.83;;;14.43;;
17065;SDS011;23120;52.336;21.182;2022-10-16T00:28:11;15.27;;;13.67;;
17065;SDS011;23120;52.336;21.182;2022-10-16T00:30:38;16.63;;;14.53;;
17065;SDS011;23120;52.336;21.182;2022-10-16T00:33:05;17.87;;;14.10;;
17065;SDS011;23120;52.336;21.182;2022-10-16T00:35:32;18.73;;;15.53;;
17065;SDS011;23120;52.336;21.182;2022-10-16T00:37:59;19.83;;;13.87;;
17065;SDS011;23120;52.336;21.182;2022-10-16T00:40:26;16.00;;;14.10;;
17065;SDS011;23120;52.336;21.182;2022-10-16T00:42:53;17.00;;;14.73;;
17065;SDS011;23120;52.336;21.182;2022-10-16T00:45:21;17.53;;;15.70;;
17065;SDS011;23120;52.336;21.182;2022-10-16T00:47:48;17.07;;;15.17;;
17065;SDS011;23120;52.336;21.182;2022-10-16T00:50:18;17.23;;;15.43;;
17065;SDS011;23120;52.336;21.182;2022-10-16T00:52:50;19.67;;;15.67;;
17065;SDS011;23120;52.336;21.182;2022-10-16T00:55:18;19.00;;;15.37;;
17065;SDS011;23120;52.336;21.182;2022-10-16T00:57:46;19.73;;;15.97;;
17065;SDS011;23120;52.336;21.182;2022-10-16T01:00:14;21.13;;;16.87;;
17065;SDS011;23120;52.336;21.182;2022-10-16T01:02:51;19.00;;;16.37;;
17065;SDS011;23120;52.336;21.182;2022-10-16T01:05:18;20.30;;;17.20;;
17065;SDS011;23120;52.336;21.182;2022-10-16T01:07:49;20.07;;;16.73;;
17065;SDS011;23120;52.336;21.182;2022-10-16T01:10:26;17.90;;;16.10;;
17065;SDS011;23120;52.336;21.182;2022-10-16T01:12:58;17.93;;;15.90;;
17065;SDS011;23120;52.336;21.182;2022-10-16T01:15:29;19.43;;;16.83;;
17065;SDS011;23120;52.336;21.182;2022-10-16T01:18:00;17.97;;;15.93;;
17065;SDS011;23120;52.336;21.182;2022-10-16T01:20:33;17.80;;;15.90;;
17065;SDS011;23120;52.336;21.182;2022-10-16T01:23:06;20.97;;;17.17;;
17065;SDS011;23120;52.336;21.182;2022-10-16T01:25:48;19.47;;;16.80;;
17065;SDS011;23120;52.336;21.182;2022-10-16T01:28:25;20.33;;;17.17;;
17065;SDS011;23120;52.336;21.182;2022-10-16T01:30:59;18.97;;;16.77;;
17065;SDS011;23120;52.336;21.182;2022-10-16T01:33:30;21.43;;;16.13;;
17065;SDS011;23120;52.336;21.182;2022-10-16T01:36:03;21.00;;;16.87;;
17065;SDS011;23120;52.336;21.182;2022-10-16T01:38:36;20.23;;;16.57;;
17065;SDS011;23120;52.336;21.182;2022-10-16T01:41:06;20.23;;;18.03;;
17065;SDS011;23120;52.336;21.182;2022-10-16T01:43:38;19.73;;;17.10;;
17065;SDS011;23120;52.336;21.182;2022-10-16T01:46:08;21.83;;;17.27;;
17065;SDS011;23120;52.336;21.182;2022-10-16T01:48:39;18.37;;;16.37;;
17065;SDS011;23120;52.336;21.182;2022-10-16T01:51:07;20.67;;;17.30;;
17065;SDS011;23120;52.336;21.182;2022-10-16T01:53:36;21.60;;;17.23;;
17065;SDS011;23120;52.336;21.182;2022-10-16T01:56:05;21.13;;;17.40;;
17065;SDS011;23120;52.336;21.182;2022-10-16T01:58:39;19.20;;;17.20;;
17065;SDS011;23120;52.336;21.182;2022-10-16T02:01:11;18.97;;;16.97;;
17065;SDS011;23120;52.336;21.182;2022-10-16T02:03:41;22.90;;;18.27;;
17065;SDS011;23120;52.336;21.182;2022-10-16T02:06:11;19.77;;;17.67;;
17065;SDS011;23120;52.336;21.182;2022-10-16T02:08:38;19.50;;;17.40;;
17065;SDS011;23120;52.336;21.182;2022-10-16T02:11:09;19.93;;;16.57;;
17065;SDS011;23120;52.336;21.182;2022-10-16T02:13:38;23.00;;;17.53;;
17065;SDS011;23120;52.336;21.182;2022-10-16T02:16:10;22.80;;;17.57;;
17065;SDS011;23120;52.336;21.182;2022-10-16T02:18:38;19.23;;;16.93;;
17065;SDS011;23120;52.336;21.182;2022-10-16T02:21:07;19.87;;;17.70;;
17065;SDS011;23120;52.336;21.182;2022-10-16T02:23:41;21.33;;;18.40;;
17065;SDS011;23120;52.336;21.182;2022-10-16T02:26:12;19.77;;;17.70;;
17065;SDS011;23120;52.336;21.182;2022-10-16T02:28:46;20.90;;;18.80;;
17065;SDS011;23120;52.336;21.182;2022-10-16T02:31:21;20.37;;;18.27;;
17065;SDS011;23120;52.336;21.182;2022-10-16T02:33:52;22.93;;;18.33;;
17065;SDS011;23120;52.336;21.182;2022-10-16T02:36:24;21.67;;;19.33;;
17065;SDS011;23120;52.336;21.182;2022-10-16T02:38:52;23.43;;;19.10;;
17065;SDS011;23120;52.336;21.182;2022-10-16T02:41:20;23.67;;;19.40;;
17065;SDS011;23120;52.336;21.182;2022-10-16T02:43:48;24.67;;;19.00;;
17065;SDS011;23120;52.336;21.182;2022-10-16T02:46:15;24.20;;;19.90;;
17065;SDS011;23120;52.336;21.182;2022-10-16T02:48:43;22.60;;;19.60;;
17065;SDS011;23120;52.336;21.182;2022-10-16T02:51:10;22.40;;;19.50;;
17065;SDS011;23120;52.336;21.182;2022-10-16T02:53:37;22.07;;;19.70;;
17065;SDS011;23120;52.336;21.182;2022-10-16T02:56:04;22.83;;;19.50;;
17065;SDS011;23120;52.336;21.182;2022-10-16T02:58:31;23.23;;;20.30;;
17065;SDS011;23120;52.336;21.182;2022-10-16T03:01:00;22.80;;;19.93;;
17065;SDS011;23120;52.336;21.182;2022-10-16T03:03:27;22.17;;;19.50;;
17065;SDS011;23120;52.336;21.182;2022-10-16T03:05:54;22.03;;;19.63;;
17065;SDS011;23120;52.336;21.182;2022-10-16T03:08:20;21.50;;;19.20;;
17065;SDS011;23120;52.336;21.182;2022-10-16T03:10:50;23.00;;;20.30;;
17065;SDS011;23120;52.336;21.182;2022-10-16T03:13:17;21.03;;;18.90;;
17065;SDS011;23120;52.336;21.182;2022-10-16T03:15:45;24.23;;;21.73;;
17065;SDS011;23120;52.336;21.182;2022-10-16T03:18:13;21.60;;;19.23;;
17065;SDS011;23120;52.336;21.182;2022-10-16T03:20:40;23.57;;;20.67;;
17065;SDS011;23120;52.336;21.182;2022-10-16T03:23:09;22.63;;;19.87;;
17065;SDS011;23120;52.336;21.182;2022-10-16T03:25:36;25.13;;;20.43;;
17065;SDS011;23120;52.336;21.182;2022-10-16T03:28:02;22.83;;;19.47;;
17065;SDS011;23120;52.336;21.182;2022-10-16T03:30:30;22.20;;;19.97;;
17065;SDS011;23120;52.336;21.182;2022-10-16T03:32:56;22.20;;;19.87;;
17065;SDS011;23120;52.336;21.182;2022-10-16T03:35:24;24.17;;;20.70;;
17065;SDS011;23120;52.336;21.182;2022-10-16T03:37:52;22.63;;;20.20;;
17065;SDS011;23120;52.336;21.182;2022-10-16T03:40:19;22.50;;;20.07;;
17065;SDS011;23120;52.336;21.182;2022-10-16T03:42:47;21.97;;;19.57;;
17065;SDS011;23120;52.336;21.182;2022-10-16T03:45:14;23.47;;;19.97;;
17065;SDS011;23120;52.336;21.182;2022-10-16T03:47:41;22.90;;;20.50;;
17065;SDS011;23120;52.336;21.182;2022-10-16T03:50:08;23.83;;;20.07;;
17065;SDS011;23120;52.336;21.182;2022-10-16T03:52:36;21.10;;;18.90;;
17065;SDS011;23120;52.336;21.182;2022-10-16T03:55:03;24.53;;;19.73;;
17065;SDS011;23120;52.336;21.182;2022-10-16T03:57:31;26.37;;;19.97;;
17065;SDS011;23120;52.336;21.182;2022-10-16T03:59:58;21.67;;;18.97;;
17065;SDS011;23120;52.336;21.182;2022-10-16T04:02:25;21.23;;;19.03;;
17065;SDS011;23120;52.336;21.182;2022-10-16T04:04:52;21.00;;;18.90;;
17065;SDS011;23120;52.336;21.182;2022-10-16T04:07:18;22.13;;;19.87;;
17065;SDS011;23120;52.336;21.182;2022-10-16T04:09:47;22.40;;;20.10;;
17065;SDS011;23120;52.336;21.182;2022-10-16T04:12:14;21.97;;;19.60;;
17065;SDS011;23120;52.336;21.182;2022-10-16T04:14:41;22.23;;;18.47;;
17065;SDS011;23120;52.336;21.182;2022-10-16T04:17:07;25.30;;;20.13;;
17065;SDS011;23120;52.336;21.182;2022-10-16T04:19:34;22.07;;;19.77;;
17065;SDS011;23120;52.336;21.182;2022-10-16T04:22:02;24.83;;;19.80;;
17065;SDS011;23120;52.336;21.182;2022-10-16T04:24:29;21.43;;;19.13;;
17065;SDS011;23120;52.336;21.182;2022-10-16T04:26:57;21.37;;;19.17;;
17065;SDS011;23120;52.336;21.182;2022-10-16T04:29:24;20.37;;;18.20;;
17065;SDS011;23120;52.336;21.182;2022-10-16T04:31:51;20.43;;;18.20;;
17065;SDS011;23120;52.336;21.182;2022-10-16T04:34:17;22.53;;;19.10;;
17065;SDS011;23120;52.336;21.182;2022-10-16T04:36:46;21.03;;;18.83;;
17065;SDS011;23120;52.336;21.182;2022-10-16T04:39:14;21.30;;;19.17;;
17065;SDS011;23120;52.336;21.182;2022-10-16T04:41:41;21.23;;;18.23;;
17065;SDS011;23120;52.336;21.182;2022-10-16T04:44:09;24.47;;;19.37;;
17065;SDS011;23120;52.336;21.182;2022-10-16T04:46:36;20.33;;;18.33;;
17065;SDS011;23120;52.336;21.182;2022-10-16T04:49:03;21.70;;;18.17;;
17065;SDS011;23120;52.336;21.182;2022-10-16T04:51:30;22.90;;;18.43;;
17065;SDS011;23120;52.336;21.182;2022-10-16T04:53:57;21.63;;;18.23;;
17065;SDS011;23120;52.336;21.182;2022-10-16T04:56:24;22.40;;;18.23;;
17065;SDS011;23120;52.336;21.182;2022-10-16T04:58:51;21.90;;;18.37;;
17065;SDS011;23120;52.336;21.182;2022-10-16T05:01:21;22.03;;;19.33;;
17065;SDS011;23120;52.336;21.182;2022-10-16T05:03:48;22.30;;;19.23;;
17065;SDS011;23120;52.336;21.182;2022-10-16T05:06:14;20.20;;;18.10;;
17065;SDS011;23120;52.336;21.182;2022-10-16T05:08:41;22.47;;;18.50;;
17065;SDS011;23120;52.336;21.182;2022-10-16T05:11:08;20.30;;;18.00;;
17065;SDS011;23120;52.336;21.182;2022-10-16T05:13:35;20.90;;;18.80;;
17065;SDS011;23120;52.336;21.182;2022-10-16T05:16:02;19.13;;;17.20;;
17065;SDS011;23120;52.336;21.182;2022-10-16T05:18:31;19.27;;;17.33;;
17065;SDS011;23120;52.336;21.182;2022-10-16T05:20:58;19.77;;;17.67;;
17065;SDS011;23120;52.336;21.182;2022-10-16T05:23:24;21.03;;;18.83;;
17065;SDS011;23120;52.336;21.182;2022-10-16T05:25:52;21.73;;;18.87;;
17065;SDS011;23120;52.336;21.182;2022-10-16T05:28:20;21.17;;;17.97;;
17065;SDS011;23120;52.336;21.182;2022-10-16T05:30:47;20.50;;;17.43;;
17065;SDS011;23120;52.336;21.182;2022-10-16T05:33:14;23.57;;;19.37;;
17065;SDS011;23120;52.336;21.182;2022-10-16T05:35:43;20.90;;;17.87;;
17065;SDS011;23120;52.336;21.182;2022-10-16T05:38:10;19.70;;;17.60;;
17065;SDS011;23120;52.336;21.182;2022-10-16T05:40:37;21.53;;;17.63;;
17065;SDS011;23120;52.336;21.182;2022-10-16T05:43:03;20.23;;;18.03;;
17065;SDS011;23120;52.336;21.182;2022-10-16T05:45:30;22.93;;;17.50;;
17065;SDS011;23120;52.336;21.182;2022-10-16T05:47:57;20.77;;;18.10;;
17065;SDS011;23120;52.336;21.182;2022-10-16T05:50:25;21.60;;;19.03;;
17065;SDS011;23120;52.336;21.182;2022-10-16T05:52:53;21.43;;;19.07;;
17065;SDS011;23120;52.336;21.182;2022-10-16T05:55:20;20.70;;;18.60;;
17065;SDS011;23120;52.336;21.182;2022-10-16T05:57:47;19.33;;;17.37;;
17065;SDS011;23120;52.336;21.182;2022-10-16T06:00:14;21.37;;;18.30;;
17065;SDS011;23120;52.336;21.182;2022-10-16T06:02:41;19.93;;;17.63;;
17065;SDS011;23120;52.336;21.182;2022-10-16T06:05:08;20.17;;;17.90;;
17065;SDS011;23120;52.336;21.182;2022-10-16T06:07:35;19.80;;;17.67;;
17065;SDS011;23120;52.336;21.182;2022-10-16T06:10:04;19.33;;;17.43;;
17065;SDS011;23120;52.336;21.182;2022-10-16T06:12:32;20.27;;;17.83;;
17065;SDS011;23120;52.336;21.182;2022-10-16T06:14:59;18.90;;;17.00;;
17065;SDS011;23120;52.336;21.182;2022-10-16T06:17:26;19.43;;;17.33;;
17065;SDS011;23120;52.336;21.182;2022-10-16T06:19:52;20.53;;;16.97;;
17065;SDS011;23120;52.336;21.182;2022-10-16T06:22:19;19.07;;;17.07;;
17065;SDS011;23120;52.336;21.182;2022-10-16T06:24:46;19.77;;;16.93;;
17065;SDS011;23120;52.336;21.182;2022-10-16T06:27:16;19.60;;;16.67;;
17065;SDS011;23120;52.336;21.182;2022-10-16T06:29:43;19.07;;;17.07;;
17065;SDS011;23120;52.336;21.182;2022-10-16T06:32:10;22.43;;;17.50;;
17065;SDS011;23120;52.336;21.182;2022-10-16T06:34:37;18.53;;;16.37;;
17065;SDS011;23120;52.336;21.182;2022-10-16T06:37:05;18.93;;;16.77;;
17065;SDS011;23120;52.336;21.182;2022-10-16T06:39:32;18.47;;;16.40;;
17065;SDS011;23120;52.336;21.182;2022-10-16T06:41:58;18.57;;;16.77;;
17065;SDS011;23120;52.336;21.182;2022-10-16T06:44:34;19.90;;;17.80;;
17065;SDS011;23120;52.336;21.182;2022-10-16T06:47:01;18.87;;;16.70;;
17065;SDS011;23120;52.336;21.182;2022-10-16T06:49:28;18.73;;;16.97;;
17065;SDS011;23120;52.336;21.182;2022-10-16T06:51:55;19.80;;;17.27;;
17065;SDS011;23120;52.336;21.182;2022-10-16T06:54:22;20.53;;;16.93;;
17065;SDS011;23120;52.336;21.182;2022-10-16T06:56:48;18.63;;;15.93;;
17065;SDS011;23120;52.336;21.182;2022-10-16T06:59:19;18.90;;;17.00;;
17065;SDS011;23120;52.336;21.182;2022-10-16T07:01:47;18.40;;;16.30;;
17065;SDS011;23120;52.336;21.182;2022-10-16T07:04:15;19.10;;;17.10;;
17065;SDS011;23120;52.336;21.182;2022-10-16T07:06:42;17.90;;;16.07;;
17065;SDS011;23120;52.336;21.182;2022-10-16T07:09:11;18.07;;;15.83;;
17065;SDS011;23120;52.336;21.182;2022-10-16T07:11:39;19.07;;;15.30;;
17065;SDS011;23120;52.336;21.182;2022-10-16T07:14:09;18.47;;;16.37;;
17065;SDS011;23120;52.336;21.182;2022-10-16T07:16:41;18.83;;;16.90;;
17065;SDS011;23120;52.336;21.182;2022-10-16T07:21:56;19.33;;;16.60;;
17065;SDS011;23120;52.336;21.182;2022-10-16T07:24:31;17.70;;;15.90;;
17065;SDS011;23120;52.336;21.182;2022-10-16T07:26:59;17.17;;;15.33;;
17065;SDS011;23120;52.336;21.182;2022-10-16T07:29:26;19.03;;;16.30;;
17065;SDS011;23120;52.336;21.182;2022-10-16T07:31:53;17.87;;;16.00;;
17065;SDS011;23120;52.336;21.182;2022-10-16T07:34:20;18.73;;;16.63;;
17065;SDS011;23120;52.336;21.182;2022-10-16T07:36:49;17.50;;;15.50;;
17065;SDS011;23120;52.336;21.182;2022-10-16T07:39:16;17.13;;;15.43;;
17065;SDS011;23120;52.336;21.182;2022-10-16T07:41:43;17.33;;;15.57;;
17065;SDS011;23120;52.336;21.182;2022-10-16T07:44:10;17.17;;;15.47;;
17065;SDS011;23120;52.336;21.182;2022-10-16T07:46:37;16.97;;;15.17;;
17065;SDS011;23120;52.336;21.182;2022-10-16T07:49:04;17.33;;;15.63;;
17065;SDS011;23120;52.336;21.182;2022-10-16T07:51:31;16.07;;;14.33;;
17065;SDS011;23120;52.336;21.182;2022-10-16T07:53:59;17.43;;;15.60;;
17065;SDS011;23120;52.336;21.182;2022-10-16T07:56:26;18.17;;;15.03;;
17065;SDS011;23120;52.336;21.182;2022-10-16T07:58:53;16.30;;;14.73;;
17065;SDS011;23120;52.336;21.182;2022-10-16T08:01:21;17.53;;;14.53;;
17065;SDS011;23120;52.336;21.182;2022-10-16T08:03:49;18.00;;;15.30;;
17065;SDS011;23120;52.336;21.182;2022-10-16T08:06:17;16.90;;;14.67;;
17065;SDS011;23120;52.336;21.182;2022-10-16T08:08:44;16.93;;;15.23;;
17065;SDS011;23120;52.336;21.182;2022-10-16T08:11:14;16.37;;;13.53;;
17065;SDS011;23120;52.336;21.182;2022-10-16T08:13:41;16.50;;;14.23;;
17065;SDS011;23120;52.336;21.182;2022-10-16T08:16:08;16.00;;;14.50;;
17065;SDS011;23120;52.336;21.182;2022-10-16T08:18:36;15.53;;;14.10;;
17065;SDS011;23120;52.336;21.182;2022-10-16T08:21:04;17.43;;;15.33;;
17065;SDS011;23120;52.336;21.182;2022-10-16T08:23:32;15.87;;;14.23;;
17065;SDS011;23120;52.336;21.182;2022-10-16T08:26:02;16.20;;;14.63;;
17065;SDS011;23120;52.336;21.182;2022-10-16T08:28:32;16.57;;;14.87;;
17065;SDS011;23120;52.336;21.182;2022-10-16T08:31:07;16.47;;;14.00;;
17065;SDS011;23120;52.336;21.182;2022-10-16T08:33:34;15.77;;;13.87;;
17065;SDS011;23120;52.336;21.182;2022-10-16T08:36:02;15.83;;;14.27;;
17065;SDS011;23120;52.336;21.182;2022-10-16T08:38:30;17.83;;;14.63;;
17065;SDS011;23120;52.336;21.182;2022-10-16T08:40:57;17.80;;;13.93;;
17065;SDS011;23120;52.336;21.182;2022-10-16T08:43:50;16.73;;;14.70;;
17065;SDS011;23120;52.336;21.182;2022-10-16T08:46:34;14.97;;;13.63;;
17065;SDS011;23120;52.336;21.182;2022-10-16T08:49:07;15.23;;;13.73;;
17065;SDS011;23120;52.336;21.182;2022-10-16T08:51:38;15.97;;;14.07;;
17065;SDS011;23120;52.336;21.182;2022-10-16T08:54:06;15.30;;;13.70;;
17065;SDS011;23120;52.336;21.182;2022-10-16T08:56:40;14.50;;;12.90;;
17065;SDS011;23120;52.336;21.182;2022-10-16T08:59:10;15.23;;;13.50;;
17065;SDS011;23120;52.336;21.182;2022-10-16T09:01:44;15.23;;;13.70;;
17065;SDS011;23120;52.336;21.182;2022-10-16T09:04:38;14.73;;;13.33;;
17065;SDS011;23120;52.336;21.182;2022-10-16T09:07:20;14.03;;;12.67;;
17065;SDS011;23120;52.336;21.182;2022-10-16T09:10:02;14.27;;;12.97;;
17065;SDS011;23120;52.336;21.182;2022-10-16T09:12:43;18.43;;;13.37;;
17065;SDS011;23120;52.336;21.182;2022-10-16T09:15:21;15.43;;;13.67;;
17065;SDS011;23120;52.336;21.182;2022-10-16T09:17:56;13.00;;;11.70;;
17065;SDS011;23120;52.336;21.182;2022-10-16T09:20:30;16.10;;;13.33;;
17065;SDS011;23120;52.336;21.182;2022-10-16T09:23:10;13.23;;;11.87;;
17065;SDS011;23120;52.336;21.182;2022-10-16T09:25:43;16.80;;;13.33;;
17065;SDS011;23120;52.336;21.182;2022-10-16T09:28:12;13.10;;;11.80;;
17065;SDS011;23120;52.336;21.182;2022-10-16T09:30:41;13.93;;;12.60;;
17065;SDS011;23120;52.336;21.182;2022-10-16T09:33:08;14.83;;;12.40;;
17065;SDS011;23120;52.336;21.182;2022-10-16T09:35:37;13.87;;;12.43;;
17065;SDS011;23120;52.336;21.182;2022-10-16T09:38:06;15.20;;;12.63;;
17065;SDS011;23120;52.336;21.182;2022-10-16T09:40:34;13.87;;;12.53;;
17065;SDS011;23120;52.336;21.182;2022-10-16T09:43:05;13.53;;;12.13;;
17065;SDS011;23120;52.336;21.182;2022-10-16T09:45:44;13.47;;;12.17;;
17065;SDS011;23120;52.336;21.182;2022-10-16T09:48:20;13.67;;;12.37;;
17065;SDS011;23120;52.336;21.182;2022-10-16T09:50:55;12.87;;;11.67;;
17065;SDS011;23120;52.336;21.182;2022-10-16T09:53:23;13.27;;;12.00;;
17065;SDS011;23120;52.336;21.182;2022-10-16T09:55:50;13.20;;;12.00;;
17065;SDS011;23120;52.336;21.182;2022-10-16T09:58:18;12.80;;;11.47;;
17065;SDS011;23120;52.336;21.182;2022-10-16T10:00:52;13.53;;;12.10;;
17065;SDS011;23120;52.336;21.182;2022-10-16T10:08:59;13.37;;;12.07;;
17065;SDS011;23120;52.336;21.182;2022-10-16T10:11:36;12.23;;;11.03;;
17065;SDS011;23120;52.336;21.182;2022-10-16T10:14:09;12.33;;;11.20;;
17065;SDS011;23120;52.336;21.182;2022-10-16T10:16:45;12.50;;;11.30;;
17065;SDS011;23120;52.336;21.182;2022-10-16T10:19:13;13.50;;;12.18;;
17065;SDS011;23120;52.336;21.182;2022-10-16T10:21:41;12.55;;;11.30;;
17065;SDS011;23120;52.336;21.182;2022-10-16T10:24:10;12.13;;;10.93;;
17065;SDS011;23120;52.336;21.182;2022-10-16T10:26:37;12.05;;;11.02;;
17065;SDS011;23120;52.336;21.182;2022-10-16T10:29:12;12.17;;;11.07;;
17065;SDS011;23120;52.336;21.182;2022-10-16T10:31:51;13.67;;;11.20;;
17065;SDS011;23120;52.336;21.182;2022-10-16T10:34:30;12.45;;;11.15;;
17065;SDS011;23120;52.336;21.182;2022-10-16T10:37:09;12.30;;;11.10;;
17065;SDS011;23120;52.336;21.182;2022-10-16T10:39:56;12.85;;;10.65;;
17065;SDS011;23120;52.336;21.182;2022-10-16T10:42:31;19.02;;;10.80;;
17065;SDS011;23120;52.336;21.182;2022-10-16T10:45:14;12.00;;;10.90;;
17065;SDS011;23120;52.336;21.182;2022-10-16T10:47:59;12.63;;;11.07;;
17065;SDS011;23120;52.336;21.182;2022-10-16T10:50:38;12.10;;;10.93;;
17065;SDS011;23120;52.336;21.182;2022-10-16T10:53:11;11.95;;;10.85;;
17065;SDS011;23120;52.336;21.182;2022-10-16T10:55:49;12.37;;;11.07;;
17065;SDS011;23120;52.336;21.182;2022-10-16T10:58:35;13.40;;;11.98;;
17065;SDS011;23120;52.336;21.182;2022-10-16T11:01:19;12.13;;;10.73;;
17065;SDS011;23120;52.336;21.182;2022-10-16T11:04:07;14.90;;;11.02;;
17065;SDS011;23120;52.336;21.182;2022-10-16T11:06:51;13.27;;;11.27;;
17065;SDS011;23120;52.336;21.182;2022-10-16T11:09:23;12.05;;;10.82;;
17065;SDS011;23120;52.336;21.182;2022-10-16T11:11:54;12.68;;;11.38;;
17065;SDS011;23120;52.336;21.182;2022-10-16T11:14:27;12.10;;;10.90;;
17065;SDS011;23120;52.336;21.182;2022-10-16T11:16:59;12.05;;;10.95;;
17065;SDS011;23120;52.336;21.182;2022-10-16T11:19:36;12.57;;;11.38;;
17065;SDS011;23120;52.336;21.182;2022-10-16T11:22:07;11.90;;;10.70;;
17065;SDS011;23120;52.336;21.182;2022-10-16T11:24:41;12.07;;;10.80;;
17065;SDS011;23120;52.336;21.182;2022-10-16T11:27:14;12.05;;;10.27;;
17065;SDS011;23120;52.336;21.182;2022-10-16T11:29:46;11.45;;;10.40;;
17065;SDS011;23120;52.336;21.182;2022-10-16T11:32:19;11.80;;;10.70;;
17065;SDS011;23120;52.336;21.182;2022-10-16T11:34:51;12.07;;;10.88;;
17065;SDS011;23120;52.336;21.182;2022-10-16T11:37:24;10.75;;;9.85;;
17065;SDS011;23120;52.336;21.182;2022-10-16T11:39:58;12.00;;;10.73;;
17065;SDS011;23120;52.336;21.182;2022-10-16T11:42:32;10.93;;;9.95;;
17065;SDS011;23120;52.336;21.182;2022-10-16T11:45:07;12.00;;;10.50;;
17065;SDS011;23120;52.336;21.182;2022-10-16T11:47:50;11.27;;;10.25;;
17065;SDS011;23120;52.336;21.182;2022-10-16T11:50:29;11.23;;;9.30;;
17065;SDS011;23120;52.336;21.182;2022-10-16T11:53:01;11.43;;;10.02;;
17065;SDS011;23120;52.336;21.182;2022-10-16T11:55:35;11.18;;;9.55;;
17065;SDS011;23120;52.336;21.182;2022-10-16T11:58:05;10.82;;;9.75;;
17065;SDS011;23120;52.336;21.182;2022-10-16T12:00:39;10.52;;;9.52;;
17065;SDS011;23120;52.336;21.182;2022-10-16T12:03:12;11.50;;;10.40;;
17065;SDS011;23120;52.336;21.182;2022-10-16T12:05:55;11.02;;;10.00;;
17065;SDS011;23120;52.336;21.182;2022-10-16T12:08:39;10.85;;;9.85;;
17065;SDS011;23120;52.336;21.182;2022-10-16T12:11:09;11.00;;;9.90;;
17065;SDS011;23120;52.336;21.182;2022-10-16T12:13:47;12.82;;;9.93;;
17065;SDS011;23120;52.336;21.182;2022-10-16T12:16:22;10.55;;;9.30;;
17065;SDS011;23120;52.336;21.182;2022-10-16T12:18:49;10.68;;;9.55;;
17065;SDS011;23120;52.336;21.182;2022-10-16T12:21:37;10.90;;;9.90;;
17065;SDS011;23120;52.336;21.182;2022-10-16T12:24:04;13.00;;;10.00;;
17065;SDS011;23120;52.336;21.182;2022-10-16T12:26:32;14.68;;;9.73;;
17065;SDS011;23120;52.336;21.182;2022-10-16T12:29:13;9.48;;;8.52;;
17065;SDS011;23120;52.336;21.182;2022-10-16T12:31:46;9.98;;;8.95;;
17065;SDS011;23120;52.336;21.182;2022-10-16T12:34:18;9.98;;;9.07;;
17065;SDS011;23120;52.336;21.182;2022-10-16T12:36:51;9.63;;;8.48;;
17065;SDS011;23120;52.336;21.182;2022-10-16T12:39:20;9.82;;;8.82;;
17065;SDS011;23120;52.336;21.182;2022-10-16T12:42:00;9.73;;;8.88;;
17065;SDS011;23120;52.336;21.182;2022-10-16T12:44:31;10.32;;;9.32;;
17065;SDS011;23120;52.336;21.182;2022-10-16T12:47:00;9.55;;;8.60;;
17065;SDS011;23120;52.336;21.182;2022-10-16T12:49:31;9.98;;;9.02;;
17065;SDS011;23120;52.336;21.182;2022-10-16T12:52:03;9.93;;;9.02;;
17065;SDS011;23120;52.336;21.182;2022-10-16T12:54:34;10.55;;;9.27;;
17065;SDS011;23120;52.336;21.182;2022-10-16T12:57:09;9.57;;;8.60;;
17065;SDS011;23120;52.336;21.182;2022-10-16T12:59:53;10.52;;;8.45;;
17065;SDS011;23120;52.336;21.182;2022-10-16T13:02:36;9.70;;;8.70;;
17065;SDS011;23120;52.336;21.182;2022-10-16T13:05:19;9.23;;;8.32;;
17065;SDS011;23120;52.336;21.182;2022-10-16T13:08:06;9.40;;;8.40;;
17065;SDS011;23120;52.336;21.182;2022-10-16T13:10:47;14.02;;;9.60;;
17065;SDS011;23120;52.336;21.182;2022-10-16T13:13:29;9.82;;;9.00;;
17065;SDS011;23120;52.336;21.182;2022-10-16T13:16:10;9.68;;;8.77;;
17065;SDS011;23120;52.336;21.182;2022-10-16T13:18:45;9.85;;;8.95;;
17065;SDS011;23120;52.336;21.182;2022-10-16T13:21:33;15.95;;;9.65;;
17065;SDS011;23120;52.336;21.182;2022-10-16T13:24:10;9.38;;;8.48;;
17065;SDS011;23120;52.336;21.182;2022-10-16T13:26:50;11.85;;;9.10;;
17065;SDS011;23120;52.336;21.182;2022-10-16T13:29:23;10.75;;;9.68;;
17065;SDS011;23120;52.336;21.182;2022-10-16T13:31:50;10.35;;;9.23;;
17065;SDS011;23120;52.336;21.182;2022-10-16T13:34:17;10.57;;;9.57;;
17065;SDS011;23120;52.336;21.182;2022-10-16T13:36:48;10.70;;;9.60;;
17065;SDS011;23120;52.336;21.182;2022-10-16T13:39:25;9.93;;;9.02;;
17065;SDS011;23120;52.336;21.182;2022-10-16T13:42:01;11.75;;;10.10;;
17065;SDS011;23120;52.336;21.182;2022-10-16T13:44:31;10.80;;;9.80;;
17065;SDS011;23120;52.336;21.182;2022-10-16T13:47:03;9.73;;;8.75;;
17065;SDS011;23120;52.336;21.182;2022-10-16T13:49:30;10.90;;;9.75;;
17065;SDS011;23120;52.336;21.182;2022-10-16T13:51:57;11.27;;;10.25;;
17065;SDS011;23120;52.336;21.182;2022-10-16T13:54:27;11.52;;;10.32;;
17065;SDS011;23120;52.336;21.182;2022-10-16T13:56:55;11.02;;;9.93;;
17065;SDS011;23120;52.336;21.182;2022-10-16T13:59:23;11.00;;;9.93;;
17065;SDS011;23120;52.336;21.182;2022-10-16T14:01:53;11.82;;;10.63;;
17065;SDS011;23120;52.336;21.182;2022-10-16T14:04:22;11.98;;;10.88;;
17065;SDS011;23120;52.336;21.182;2022-10-16T14:06:51;11.23;;;10.13;;
17065;SDS011;23120;52.336;21.182;2022-10-16T14:09:21;10.98;;;9.85;;
17065;SDS011;23120;52.336;21.182;2022-10-16T14:11:53;11.13;;;9.98;;
17065;SDS011;23120;52.336;21.182;2022-10-16T14:14:22;10.85;;;9.77;;
17065;SDS011;23120;52.336;21.182;2022-10-16T14:16:49;11.15;;;10.13;;
17065;SDS011;23120;52.336;21.182;2022-10-16T14:19:18;10.57;;;9.48;;
17065;SDS011;23120;52.336;21.182;2022-10-16T14:21:48;11.15;;;10.05;;
17065;SDS011;23120;52.336;21.182;2022-10-16T14:24:22;11.45;;;10.32;;
17065;SDS011;23120;52.336;21.182;2022-10-16T14:26:53;11.38;;;9.32;;
17065;SDS011;23120;52.336;21.182;2022-10-16T14:29:22;10.13;;;9.20;;
17065;SDS011;23120;52.336;21.182;2022-10-16T14:31:56;10.95;;;9.73;;
17065;SDS011;23120;52.336;21.182;2022-10-16T14:34:24;14.23;;;9.55;;
17065;SDS011;23120;52.336;21.182;2022-10-16T14:36:53;11.82;;;10.00;;
17065;SDS011;23120;52.336;21.182;2022-10-16T14:39:21;10.32;;;9.38;;